Flight Track Log - Related Links

Times and Time Zones

All times are in EDT time to prevent confusion due to time zone crossing. See the CSZ9963 flight status page for this flight to view local times or setup timezone preferences in your user account.

Time Position Orientation Groundspeed Altitude Reporting Facility
EDT Latitude Longitude Course Direction KTS MPH feet Rate Location/Type
Thu 12:40:00 AM 23.1784 114.2477 37° Northeast  Level Estimated
Thu 12:41:00 AM 23.2682 114.3206 37° Northeast  Level Estimated
Thu 12:42:00 AM 23.3578 114.3936 37° Northeast  Level Estimated
Thu 12:43:00 AM 23.4475 114.4667 37° Northeast  Level Estimated
Thu 12:44:00 AM 23.5371 114.5399 37° Northeast  Level Estimated
Thu 12:45:00 AM 23.6267 114.6132 37° Northeast  Level Estimated
Thu 12:46:00 AM 23.7162 114.6866 37° Northeast  Level Estimated
Thu 12:47:00 AM 23.8057 114.7601 37° Northeast  Level Estimated
Thu 12:48:00 AM 23.8952 114.8337 37° Northeast  Level Estimated
Thu 12:49:00 AM 23.9846 114.9074 37° Northeast  Level Estimated
Thu 12:50:00 AM 24.0740 114.9812 37° Northeast  Level Estimated
Thu 12:51:00 AM 24.1634 115.0551 37° Northeast  Level Estimated
Thu 12:52:00 AM 24.2527 115.1291 37° Northeast  Level Estimated
Thu 12:53:00 AM 24.3420 115.2032 37° Northeast  Level Estimated
Thu 12:54:00 AM 24.4313 115.2774 37° Northeast  Level Estimated
Thu 12:55:00 AM 24.5205 115.3517 37° Northeast  Level Estimated
Thu 12:56:00 AM 24.6097 115.4261 37° Northeast  Level Estimated
Thu 12:57:00 AM 24.6988 115.5006 37° Northeast  Level Estimated
Thu 12:58:00 AM 24.7880 115.5753 37° Northeast  Level Estimated
Thu 12:59:00 AM 24.8770 115.6500 37° Northeast  Level Estimated
Thu 01:00:00 AM 24.9661 115.7249 37° Northeast  Level Estimated
Thu 01:01:00 AM 25.0551 115.7998 37° Northeast  Level Estimated
Thu 01:02:00 AM 25.1440 115.8749 37° Northeast  Level Estimated
Thu 01:03:00 AM 25.2330 115.9501 37° Northeast  Level Estimated
Thu 01:04:00 AM 25.3218 116.0254 37° Northeast  Level Estimated
Thu 01:05:00 AM 25.4107 116.1008 37° Northeast  Level Estimated
Thu 01:06:00 AM 25.4995 116.1763 37° Northeast  Level Estimated
Thu 01:07:00 AM 25.5883 116.2519 38° Northeast  Level Estimated
Thu 01:08:00 AM 25.6770 116.3276 38° Northeast  Level Estimated
Thu 01:09:00 AM 25.7657 116.4035 38° Northeast  Level Estimated
Thu 01:10:00 AM 25.8544 116.4794 38° Northeast  Level Estimated
Thu 01:11:00 AM 25.9430 116.5555 38° Northeast  Level Estimated
Thu 01:12:00 AM 26.0315 116.6317 38° Northeast  Level Estimated
Thu 01:13:00 AM 26.1201 116.7080 38° Northeast  Level Estimated
Thu 01:14:00 AM 26.2086 116.7844 38° Northeast  Level Estimated
Thu 01:15:00 AM 26.2970 116.8610 38° Northeast  Level Estimated
Thu 01:16:00 AM 26.3855 116.9376 38° Northeast  Level Estimated
Thu 01:17:00 AM 26.4738 117.0144 38° Northeast  Level Estimated
Thu 01:18:00 AM 26.5622 117.0913 38° Northeast  Level Estimated
Thu 01:19:00 AM 26.6504 117.1683 38° Northeast  Level Estimated
Thu 01:20:00 AM 26.7387 117.2454 38° Northeast  Level Estimated
Thu 01:21:00 AM 26.8269 117.3226 38° Northeast  Level Estimated
Thu 01:22:00 AM 26.9151 117.4000 38° Northeast  Level Estimated
Thu 01:23:00 AM 27.0032 117.4775 38° Northeast  Level Estimated
Thu 01:24:00 AM 27.0913 117.5551 38° Northeast  Level Estimated
Thu 01:25:00 AM 27.1793 117.6328 38° Northeast  Level Estimated
Thu 01:26:00 AM 27.2673 117.7107 38° Northeast  Level Estimated
Thu 01:27:00 AM 27.3553 117.7887 38° Northeast  Level Estimated
Thu 01:28:00 AM 27.4432 117.8668 38° Northeast  Level Estimated
Thu 01:29:00 AM 27.5310 117.9450 38° Northeast  Level Estimated
Thu 01:30:00 AM 27.6189 118.0233 38° Northeast  Level Estimated
Thu 01:31:00 AM 27.7066 118.1018 38° Northeast  Level Estimated
Thu 01:32:00 AM 27.7944 118.1804 38° Northeast  Level Estimated
Thu 01:33:00 AM 27.8820 118.2591 38° Northeast  Level Estimated
Thu 01:34:00 AM 27.9697 118.3380 38° Northeast  Level Estimated
Thu 01:35:00 AM 28.0573 118.4170 39° Northeast  Level Estimated
Thu 01:36:00 AM 28.1448 118.4961 39° Northeast  Level Estimated
Thu 01:37:00 AM 28.2323 118.5753 39° Northeast  Level Estimated
Thu 01:38:00 AM 28.3198 118.6547 39° Northeast  Level Estimated
Thu 01:39:00 AM 28.4072 118.7342 39° Northeast  Level Estimated
Thu 01:40:00 AM 28.4946 118.8138 39° Northeast  Level Estimated
Thu 01:41:00 AM 28.5819 118.8936 39° Northeast  Level Estimated
Thu 01:42:00 AM 28.6692 118.9735 39° Northeast  Level Estimated
Thu 01:43:00 AM 28.7564 119.0535 39° Northeast  Level Estimated
Thu 01:44:00 AM 28.8436 119.1337 39° Northeast  Level Estimated
Thu 01:45:00 AM 28.9307 119.2140 39° Northeast  Level Estimated
Thu 01:46:00 AM 29.0178 119.2944 39° Northeast  Level Estimated
Thu 01:47:00 AM 29.1049 119.3750 39° Northeast  Level Estimated
Thu 01:48:00 AM 29.1919 119.4557 39° Northeast  Level Estimated
Thu 01:49:00 AM 29.2788 119.5366 39° Northeast  Level Estimated
Thu 01:50:00 AM 29.3657 119.6175 39° Northeast  Level Estimated
Thu 01:51:00 AM 29.4525 119.6986 39° Northeast  Level Estimated
Thu 01:52:00 AM 29.5393 119.7799 39° Northeast  Level Estimated
Thu 01:53:00 AM 29.6261 119.8613 39° Northeast  Level Estimated
Thu 01:54:00 AM 29.7128 119.9428 39° Northeast  Level Estimated
Thu 01:55:00 AM 29.7994 120.0245 39° Northeast  Level Estimated
Thu 01:56:00 AM 29.8860 120.1064 39° Northeast  Level Estimated
Thu 01:57:00 AM 29.9726 120.1883 39° Northeast  Level Estimated
Thu 01:58:00 AM 30.0591 120.2704 39° Northeast  Level Estimated
Thu 01:59:00 AM 30.1455 120.3527 39° Northeast  Level Estimated
Thu 02:00:00 AM 30.2283 120.4317 39° Northeast  Level Estimated
Thu 02:01:00 AM 30.2283 120.4317 North  Level Estimated
Thu 02:02:00 AM 30.2283 120.4317 North  Level Estimated
Thu 02:03:00 AM 30.2283 120.4317 North  Level Estimated
Thu 02:04:00 AM 30.2283 120.4317 North  Level Estimated
Thu 02:05:00 AM 30.2283 120.4317 North  Level Estimated
Thu 02:06:00 AM 30.2283 120.4317 North  Level Estimated
Thu 02:07:00 AM 30.2283 120.4317 North  Level Estimated
Thu 02:08:00 AM 30.2283 120.4317 North  Level Estimated
Thu 02:09:00 AM 30.2283 120.4317 North  Level Estimated
Thu 02:10:00 AM 30.2283 120.4317 North  Level Estimated
Thu 02:11:00 AM 30.2283 120.4317 North  Level Estimated
Thu 02:12:00 AM 30.2283 120.4317 North  Level Estimated
Thu 02:13:00 AM 30.2283 120.4317 North  Level Estimated
Thu 02:14:00 AM 30.2283 120.4317 North  Level Estimated
Thu 02:15:00 AM 30.2283 120.4317 North  Level Estimated
Thu 02:16:00 AM 30.2283 120.4317 North  Level Estimated

Login

Don't have an account? Register now (free) for customized features, flight alerts, and more!